ADDS METAR Data INFO
IDs: Format: Raw Decoded Include TAF

Data at: 1154 UTC 21 Jun 2018

KLWD 211104Z AUTO 25012KT 10SM OVC015 17/14 A2972 RMK AO2 T01720144 $
KLWD 211053Z AUTO 24012KT 10SM BKN013 OVC018 17/14 A2972 RMK AO2 SLP058 T01720144 $
KLWD 211042Z AUTO 25010KT 10SM OVC016 17/14 A2972 RMK AO2 T01670144 $
KLWD 211034Z AUTO 25011KT 8SM OVC014 17/14 A2972 RMK AO2 T01670144 $
KLWD 210953Z AUTO 25012KT 10SM BKN015 OVC022 18/15 A2972 RMK AO2 SLP056 T01780150 $
KLWD 210853Z AUTO 22008KT 10SM OVC020 18/16 A2972 RMK AO2 SLP058 T01780156 56011 $
KLWD 210753Z AUTO 23007KT 10SM BKN020 18/16 A2974 RMK AO2 SLP062 T01780156 $
KLWD 210750Z AUTO 23006KT 10SM BKN020 18/16 A2973 RMK AO2 $
KLWD 210723Z AUTO 21006KT 10SM SCT021 SCT028 17/16 A2974 RMK AO2 T01720156 $
KLWD 210653Z AUTO 23007KT 10SM BKN025 18/16 A2976 RMK AO2 SLP069 T01780156 $
KLWD 210650Z AUTO 23006KT 10SM BKN025 18/16 A2976 RMK AO2 $
KLWD 210553Z AUTO 25005KT 10SM CLR 18/16 A2976 RMK AO2 SLP069 T01780156 10244 20178 402830178 58002 $
KLWD 210453Z AUTO 27007KT 10SM CLR 18/16 A2978 RMK AO2 SLP076 T01830161 $
KLWD 210353Z AUTO 24008KT 10SM FEW025 21/18 A2977 RMK AO2 SLP074 T02060178 $
KLWD 210253Z AUTO 26004KT 10SM FEW025 21/18 A2977 RMK AO2 SLP071 T02110183 55004 $
KLWD 210228Z AUTO 26005KT 10SM BKN025 BKN032 22/18 A2976 RMK AO2 T02220183 $
KLWD 210153Z AUTO 26007KT 10SM SCT033 22/18 A2976 RMK AO2 SLP069 T02220183 $
KLWD 210053Z AUTO 27007KT 10SM FEW028 SCT060 24/19 A2977 RMK AO2 SLP073 T02390189 $
KLWD 202353Z AUTO 27008KT 10SM OVC060 24/18 A2978 RMK AO2 SLP076 T02440183 10283 20239 53010 $
KLWD 202253Z AUTO 27013KT 10SM CLR 25/18 A2974 RMK AO2 SLP061 T02500178 $
KLWD 202153Z AUTO 28014KT 10SM FEW029 SCT038 25/18 A2975 RMK AO2 SLP065 T02500183 $
KLWD 202053Z AUTO 24011KT 10SM FEW026 25/19 A2975 RMK AO2 SLP066 T02500194 56010 $
KLWD 201953Z AUTO 25015G25KT 10SM FEW019 FEW025 SCT039 25/20 A2977 RMK AO2 PK WND 27030/1925 SLP072 T02500200
KLWD 201853Z AUTO 21017G26KT 10SM FEW039 28/20 A2975 RMK AO2 PK WND 19026/1847 SLP066 T02780200
KLWD 201806Z AUTO 19012KT 10SM SCT029 BKN044 28/22 A2977 RMK AO2 LTG DSNT E T02830217
KLWD 201753Z AUTO 19014G18KT 10SM BKN029 BKN041 28/22 A2978 RMK AO2 LTG DSNT E SLP074 T02780217 10278 20211 55010
KLWD 201748Z AUTO 20012KT 10SM BKN029 BKN041 28/22 A2978 RMK AO2 LTG DSNT E
KLWD 201653Z AUTO 18011KT 10SM SCT023 27/22 A2979 RMK AO2 LTG DSNT E AND SE SLP077 T02720222
KLWD 201553Z AUTO 19009KT 10SM SCT036 SCT047 26/22 A2981 RMK AO2 SLP086 T02560222
KLWD 201532Z AUTO 20009KT 10SM FEW018 BKN030 BKN036 26/22 A2981 RMK AO2 T02560217
KLWD 201453Z AUTO 18009KT 10SM SCT018 BKN026 26/22 A2981 RMK AO2 SLP087 T02560222 55008
KLWD 201353Z AUTO 14006KT 10SM CLR 24/22 A2981 RMK AO2 SLP087 T02440217
KLWD 201308Z AUTO 16005KT 10SM SCT003 24/22 A2982 RMK AO2 T02390217
KLWD 201253Z AUTO 14005KT 10SM BKN002 23/21 A2981 RMK AO2 SLP088 T02280211
KLWD 201237Z AUTO 17005KT 5SM BR OVC002 22/21 A2983 RMK AO2 T02170206
KLWD 201230Z AUTO 17005KT 2 1/2SM BR OVC002 21/21 A2983 RMK AO2 T02110206
KLWD 201153Z AUTO 19003KT 6SM BR OVC002 21/21 A2984 RMK AO2 SLP096 70037 T02110206 10217 20206 58013
KLWD 201116Z AUTO 19005KT 10SM BKN003 BKN075 21/20 A2986 RMK AO2 T02110200
KLWD 201103Z AUTO 18005KT 10SM SCT002 BKN070 21/20 A2986 RMK AO2 T02060200
KLWD 201053Z AUTO 00000KT 10SM BKN070 21/20 A2986 RMK AO2 SLP102 T02060200
KLWD 201018Z AUTO 15006KT 10SM SCT006 BKN070 21/20 A2986 RMK AO2 T02110200
KLWD 200953Z AUTO 17004KT 10SM OVC007 21/20 A2986 RMK AO2 SLP105 T02110200
KLWD 200932Z AUTO 18006KT 10SM OVC009 21/20 A2986 RMK AO2 CIG 007V012 T02110200
KLWD 200915Z AUTO 22005KT 10SM OVC010 21/20 A2987 RMK AO2 LTG DSNT N CIG 007V013 T02110200
KLWD 200901Z AUTO 23005KT 10SM BKN008 BKN012 BKN029 21/20 A2987 RMK AO2 LTG DSNT N CIG 005V011 T02110200
KLWD 200853Z AUTO 25007KT 10SM SCT006 BKN029 BKN065 21/20 A2988 RMK AO2 LTG DSNT N AND NW SLP109 T02110200 55004
KLWD 200847Z AUTO 28010KT 10SM FEW006 BKN031 BKN065 21/20 A2988 RMK AO2 LTG DSNT N AND NW
KLWD 200838Z AUTO 18006KT 10SM VCTS FEW040 SCT070 BKN090 21/20 A2986 RMK AO2 LTG DSNT NW T02110200
KLWD 200753Z AUTO 17007KT 10SM OVC060 21/20 A2987 RMK AO2 SLP107 T02110200
KLWD 200653Z AUTO 15004KT 10SM SCT043 BKN060 21/20 A2987 RMK AO2 LTG DSNT NW SLP109 T02110200
KLWD 200553Z AUTO 16005KT 10SM CLR 22/21 A2989 RMK AO2 SLP114 T02170206 10250 20217 402720217 58009
KLWD 200453Z AUTO 16007KT 10SM CLR 22/21 A2989 RMK AO2 SLP115 T02220206
KLWD 200353Z AUTO 17005KT 10SM FEW039 FEW100 SCT110 23/21 A2993 RMK AO2 SLP128 T02280211
KLWD 200253Z AUTO 15005KT 10SM BKN040 OVC047 23/22 A2992 RMK AO2 SLP121 T02280217 53008
KLWD 200153Z AUTO 12004KT 10SM CLR 23/21 A2989 RMK AO2 SLP114 T02280211
KLWD 200053Z AUTO 14004KT 10SM FEW039 24/21 A2989 RMK AO2 SLP113 T02390211